createdAt,value
2022-12-15T00:00:02.531Z,93618.28
2022-12-15T00:02:50.042Z,93613.31
2022-12-15T00:05:35.725Z,93601.22
2022-12-15T00:08:28.869Z,93592.22
2022-12-15T00:11:15.312Z,93606.88
2022-12-15T00:14:00.683Z,93631.09
2022-12-15T00:16:47.045Z,93628.84
2022-12-15T00:19:32.360Z,93634.13
2022-12-15T00:22:17.683Z,93647.06
2022-12-15T00:25:03.129Z,93671.47
2022-12-15T00:27:48.388Z,93674.53
2022-12-15T00:30:34.178Z,93700.75
2022-12-15T00:33:26.893Z,93705.22
2022-12-15T00:36:12.309Z,93680.66
2022-12-15T00:38:46.046Z,93682.81
2022-12-15T00:41:15.398Z,93680.53
2022-12-15T00:43:43.934Z,93673.50
2022-12-15T00:46:29.877Z,93657.38
2022-12-15T00:48:59.582Z,93652.34
2022-12-15T00:51:44.956Z,93640.38
2022-12-15T00:54:31.008Z,93628.09
2022-12-15T00:57:16.362Z,93620.25
2022-12-15T01:00:01.757Z,93609.09
2022-12-15T01:02:47.342Z,93606.84
2022-12-15T01:05:34.406Z,93618.75
2022-12-15T01:08:19.878Z,93611.97
2022-12-15T01:11:05.296Z,93598.63
2022-12-15T01:13:50.668Z,93592.75
2022-12-15T01:16:35.938Z,93592.94
2022-12-15T01:19:21.059Z,93594.25
2022-12-15T01:21:50.853Z,93589.41
2022-12-15T01:24:18.723Z,93593.00
2022-12-15T01:26:46.679Z,93583.50
2022-12-15T01:29:14.681Z,93594.25
2022-12-15T01:31:44.075Z,93596.63
2022-12-15T01:34:12.241Z,93614.56
2022-12-15T01:36:40.135Z,93616.06
2022-12-15T01:39:09.390Z,93614.56
2022-12-15T01:41:36.299Z,93608.72
2022-12-15T01:44:21.727Z,93595.44
2022-12-15T01:46:51.467Z,93579.31
2022-12-15T01:49:23.463Z,93595.06
2022-12-15T01:51:55.871Z,93589.34
2022-12-15T01:54:30.084Z,93576.53
2022-12-15T01:57:03.498Z,93576.75
2022-12-15T01:59:35.538Z,93551.94
2022-12-15T02:02:04.210Z,93547.25
2022-12-15T02:04:33.242Z,93537.59
2022-12-15T02:07:01.242Z,93522.06
2022-12-15T02:09:31.422Z,93531.00
2022-12-15T02:12:03.391Z,93544.09
2022-12-15T02:14:48.288Z,93556.25
2022-12-15T02:17:29.495Z,93516.06
2022-12-15T02:20:19.507Z,93524.41
2022-12-15T02:23:04.886Z,93493.50
2022-12-15T02:26:01.367Z,93520.53
2022-12-15T02:28:39.166Z,93504.00
2022-12-15T02:31:29.553Z,93491.91
2022-12-15T02:34:06.184Z,93502.78
2022-12-15T02:36:38.309Z,93528.78
2022-12-15T02:39:07.053Z,93519.56
2022-12-15T02:41:40.261Z,93518.31
2022-12-15T02:44:13.298Z,93521.69
2022-12-15T02:47:00.762Z,93517.88
2022-12-15T02:49:39.643Z,93505.66
2022-12-15T02:52:23.947Z,93555.66
2022-12-15T02:55:03.618Z,93557.34
2022-12-15T02:57:43.353Z,93551.22
2022-12-15T03:00:13.845Z,93540.50
2022-12-15T03:02:47.596Z,93553.94
2022-12-15T03:05:17.208Z,93552.97
2022-12-15T03:07:45.153Z,93566.44
2022-12-15T03:10:19.040Z,93557.88
2022-12-15T03:12:47.407Z,93537.84
2022-12-15T03:15:15.575Z,93549.53
2022-12-15T03:17:44.906Z,93539.09
2022-12-15T03:20:13.193Z,93533.25
2022-12-15T03:22:41.909Z,93553.81
2022-12-15T03:25:10.281Z,93541.38
2022-12-15T03:27:38.720Z,93552.16
2022-12-15T03:30:08.118Z,93553.94
2022-12-15T03:32:36.018Z,93561.53
2022-12-15T03:35:05.907Z,93544.41
2022-12-15T03:37:33.945Z,93549.22
2022-12-15T03:40:01.858Z,93555.88
2022-12-15T03:42:47.028Z,93531.00
2022-12-15T03:45:14.983Z,93540.81
2022-12-15T03:47:43.239Z,93545.84
2022-12-15T03:50:14.743Z,93570.72
2022-12-15T03:52:42.718Z,93573.63
2022-12-15T03:55:12.600Z,93575.25
2022-12-15T03:57:40.601Z,93576.72
2022-12-15T04:00:09.542Z,93570.91
2022-12-15T04:02:37.589Z,93584.03
2022-12-15T04:05:06.091Z,93584.44
2022-12-15T04:07:35.526Z,93586.34
2022-12-15T04:10:03.428Z,93591.19
2022-12-15T04:12:31.324Z,93592.88
2022-12-15T04:14:59.177Z,93596.53
2022-12-15T04:17:27.082Z,93594.41
2022-12-15T04:20:13.050Z,93595.97
2022-12-15T04:22:44.906Z,93585.94
2022-12-15T04:25:33.241Z,93583.34
2022-12-15T04:28:18.622Z,93592.28
2022-12-15T04:31:06.682Z,93584.91
2022-12-15T04:33:52.578Z,93576.63
2022-12-15T04:36:37.946Z,93585.34
2022-12-15T04:39:24.927Z,93576.34
2022-12-15T04:42:11.229Z,93549.44
2022-12-15T04:44:56.922Z,93569.16
2022-12-15T04:47:42.243Z,93565.06
2022-12-15T04:50:27.585Z,93580.97
2022-12-15T04:53:12.998Z,93553.34
2022-12-15T04:55:59.624Z,93572.72
2022-12-15T04:58:45.511Z,93592.22
2022-12-15T05:01:30.860Z,93598.91
2022-12-15T05:04:16.101Z,93608.88
2022-12-15T05:07:01.191Z,93625.19
2022-12-15T05:09:46.183Z,93625.41
2022-12-15T05:12:32.806Z,93621.38
2022-12-15T05:15:18.139Z,93643.38
2022-12-15T05:18:03.407Z,93654.66
2022-12-15T05:20:50.120Z,93671.28
2022-12-15T05:23:35.900Z,93668.38
2022-12-15T05:26:25.274Z,93681.19
2022-12-15T05:29:12.609Z,93697.50
2022-12-15T05:31:54.712Z,93688.72
2022-12-15T05:34:23.510Z,93686.34
2022-12-15T05:36:51.869Z,93700.34
2022-12-15T05:39:21.267Z,93717.50
2022-12-15T05:41:49.418Z,93709.00
2022-12-15T05:44:19.522Z,93723.00
2022-12-15T05:46:48.579Z,93731.38
2022-12-15T05:49:18.042Z,93743.47
2022-12-15T05:51:47.853Z,93741.47
2022-12-15T05:54:18.402Z,93760.03
2022-12-15T05:56:46.930Z,93779.50
2022-12-15T05:59:20.166Z,93764.63
2022-12-15T06:01:48.454Z,93783.00
2022-12-15T06:04:16.636Z,93789.88
2022-12-15T06:06:44.828Z,93789.63
2022-12-15T06:09:13.090Z,93792.59
2022-12-15T06:11:41.113Z,93785.13
2022-12-15T06:14:10.001Z,93785.91
2022-12-15T06:16:50.369Z,93790.63
2022-12-15T06:19:19.991Z,93797.41
2022-12-15T06:21:49.794Z,93806.28
2022-12-15T06:24:18.098Z,93799.91
2022-12-15T06:26:49.742Z,93815.19
2022-12-15T06:29:18.467Z,93817.56
2022-12-15T06:31:48.043Z,93807.59
2022-12-15T06:34:17.791Z,93804.31
2022-12-15T06:36:46.113Z,93809.84
2022-12-15T06:39:16.623Z,93821.19
2022-12-15T06:41:45.430Z,93831.28
2022-12-15T06:44:15.731Z,93831.56
2022-12-15T06:46:45.816Z,93831.03
2022-12-15T06:49:15.902Z,93835.75
2022-12-15T06:51:45.374Z,93826.28
2022-12-15T06:54:14.073Z,93829.75
2022-12-15T06:56:42.708Z,93834.72
2022-12-15T06:59:12.247Z,93844.59
2022-12-15T07:01:41.940Z,93848.69
2022-12-15T07:04:11.412Z,93855.44
2022-12-15T07:06:42.565Z,93842.88
2022-12-15T07:09:16.653Z,93854.56
2022-12-15T07:11:45.288Z,93861.22
2022-12-15T07:14:13.330Z,93876.84
2022-12-15T07:16:41.976Z,93860.13
2022-12-15T07:19:13.769Z,93891.09
2022-12-15T07:21:43.966Z,93872.19
2022-12-15T07:24:13.246Z,93886.53
2022-12-15T07:26:41.438Z,93894.53
2022-12-15T07:29:09.696Z,93887.59
2022-12-15T07:31:37.834Z,93882.50
2022-12-15T07:34:05.960Z,93905.16
2022-12-15T07:36:33.958Z,93907.84
2022-12-15T07:39:04.907Z,93901.72
2022-12-15T07:41:33.642Z,93918.75
2022-12-15T07:44:02.425Z,93914.84
2022-12-15T07:46:30.664Z,93919.47
2022-12-15T07:48:58.878Z,93917.97
2022-12-15T07:51:28.013Z,93929.09
2022-12-15T07:53:56.102Z,93937.34
2022-12-15T07:56:25.716Z,93933.75
2022-12-15T07:58:54.329Z,93946.53
2022-12-15T08:01:24.866Z,93942.41
2022-12-15T08:03:53.142Z,93957.91
2022-12-15T08:06:21.508Z,93960.50
2022-12-15T08:08:51.241Z,93973.13
2022-12-15T08:11:22.608Z,93962.69
2022-12-15T08:14:03.014Z,93963.81
2022-12-15T08:16:32.080Z,93951.50
2022-12-15T08:19:00.224Z,93967.81
2022-12-15T08:21:28.252Z,93964.56
2022-12-15T08:23:56.568Z,93969.09
2022-12-15T08:26:29.967Z,93982.44
2022-12-15T08:31:42.940Z,93987.03
2022-12-15T08:34:12.279Z,93995.38
2022-12-15T08:39:27.674Z,93986.47
2022-12-15T08:41:56.954Z,93980.75
2022-12-15T08:44:24.939Z,93978.66
2022-12-15T08:46:54.200Z,93982.19
2022-12-15T08:49:22.633Z,93999.50
2022-12-15T08:51:51.554Z,93991.97
2022-12-15T08:54:20.722Z,94001.03
2022-12-15T08:56:48.849Z,94003.66
2022-12-15T08:59:16.909Z,94003.06
2022-12-15T09:01:45.182Z,93988.66
2022-12-15T09:04:15.747Z,94001.28
2022-12-15T09:06:44.271Z,93992.28
2022-12-15T09:09:16.609Z,93992.63
2022-12-15T09:11:44.639Z,93989.34
2022-12-15T09:14:12.662Z,93994.19
2022-12-15T09:16:40.740Z,93997.75
2022-12-15T09:19:09.047Z,94008.03
2022-12-15T09:21:39.804Z,93994.53
2022-12-15T09:24:08.039Z,93992.09
2022-12-15T09:26:36.239Z,94008.09
2022-12-15T09:29:04.546Z,93989.91
2022-12-15T09:31:34.498Z,94006.91
2022-12-15T09:34:02.930Z,94007.06
2022-12-15T09:36:32.864Z,94011.09
2022-12-15T09:39:03.670Z,94010.13
2022-12-15T09:41:34.333Z,94019.81
2022-12-15T09:44:05.499Z,94007.69
2022-12-15T09:46:50.147Z,94015.75
2022-12-15T09:49:32.067Z,94023.97
2022-12-15T09:52:10.687Z,94026.19
2022-12-15T09:54:42.564Z,94023.44
2022-12-15T09:57:21.076Z,94039.88
2022-12-15T10:00:07.308Z,94047.47
2022-12-15T10:03:14.532Z,94025.03
2022-12-15T10:06:14.756Z,94020.63
2022-12-15T10:08:41.641Z,94026.06
2022-12-15T10:11:27.922Z,94018.34
2022-12-15T10:14:01.070Z,94023.38
2022-12-15T10:16:34.219Z,94017.53
2022-12-15T10:19:10.516Z,94030.47
2022-12-15T10:21:38.844Z,94027.19
2022-12-15T10:24:31.404Z,94026.53
2022-12-15T10:27:31.545Z,94042.16
2022-12-15T10:30:02.624Z,94037.41
2022-12-15T10:32:43.873Z,94040.34
2022-12-15T10:35:17.703Z,94043.22
2022-12-15T10:37:45.825Z,94038.97
2022-12-15T10:40:20.579Z,94049.63
2022-12-15T10:42:51.804Z,94035.41
2022-12-15T10:45:36.000Z,94049.09
2022-12-15T10:48:04.124Z,94040.78
2022-12-15T10:50:32.077Z,94044.38
2022-12-15T10:53:00.681Z,94039.69
2022-12-15T10:55:39.711Z,94044.03
2022-12-15T10:58:19.464Z,94052.78
2022-12-15T11:00:50.948Z,94055.22
2022-12-15T11:03:25.154Z,94030.50
2022-12-15T11:05:54.939Z,94040.97
2022-12-15T11:08:23.899Z,94035.25
2022-12-15T11:11:11.373Z,94038.91
2022-12-15T11:13:42.406Z,94038.84
2022-12-15T11:16:17.674Z,94034.06
2022-12-15T11:18:51.010Z,94045.16
2022-12-15T11:21:23.724Z,94026.88
2022-12-15T11:24:07.092Z,94044.22
2022-12-15T11:26:50.247Z,94044.88
2022-12-15T11:29:50.121Z,94028.19
2022-12-15T11:32:23.281Z,94047.56
2022-12-15T11:34:51.412Z,94055.59
2022-12-15T11:37:41.439Z,94043.47
2022-12-15T11:40:24.925Z,94065.41
2022-12-15T11:43:06.780Z,94053.22
2022-12-15T11:45:48.139Z,94057.75
2022-12-15T11:48:18.931Z,94063.06
2022-12-15T11:50:54.697Z,94064.16
2022-12-15T11:53:58.455Z,94060.19
2022-12-15T11:56:33.667Z,94050.16
2022-12-15T11:59:23.120Z,94061.75
2022-12-15T12:02:13.598Z,94071.78
2022-12-15T12:04:53.465Z,94061.41
2022-12-15T12:07:30.845Z,94075.50
2022-12-15T12:10:10.773Z,94091.94
2022-12-15T12:12:47.476Z,94096.09
2022-12-15T12:15:28.810Z,94102.22
2022-12-15T12:18:07.405Z,94101.94
2022-12-15T12:20:45.112Z,94101.47
2022-12-15T12:23:21.050Z,94109.44
2022-12-15T12:26:03.020Z,94117.19
2022-12-15T12:28:41.579Z,94116.28
2022-12-15T12:31:20.773Z,94119.84
2022-12-15T12:33:56.923Z,94133.47
2022-12-15T12:36:25.156Z,94141.94
2022-12-15T12:41:48.521Z,94135.94
2022-12-15T12:44:30.991Z,94151.44
2022-12-15T12:47:06.411Z,94141.31
2022-12-15T12:49:40.715Z,94131.66
2022-12-15T12:52:21.503Z,94129.13
2022-12-15T12:54:58.268Z,94118.19
2022-12-15T12:57:39.727Z,94116.94
2022-12-15T13:00:25.919Z,94131.56
2022-12-15T13:03:19.846Z,94128.19
2022-12-15T13:05:55.373Z,94136.47
2022-12-15T13:09:10.582Z,94124.78
2022-12-15T13:39:05.908Z,94120.06
2022-12-15T13:42:07.867Z,94137.75
2022-12-15T13:44:55.502Z,94149.06
2022-12-15T13:50:34.906Z,94145.50
2022-12-15T13:53:20.072Z,94146.25
2022-12-15T14:09:43.418Z,94162.81
2022-12-15T14:12:39.300Z,94169.00
2022-12-15T14:15:27.537Z,94153.41
2022-12-15T14:17:57.748Z,94160.22
2022-12-15T14:20:31.002Z,94163.91
2022-12-15T14:25:57.402Z,94179.44
2022-12-15T14:28:27.720Z,94162.50
2022-12-15T14:30:59.579Z,94174.97
2022-12-15T14:33:34.209Z,94173.00
2022-12-15T14:36:07.264Z,94175.78
2022-12-15T14:38:46.919Z,94185.63
2022-12-15T14:41:24.046Z,94195.00
2022-12-15T14:44:37.396Z,94202.75
2022-12-15T14:46:47.763Z,94200.97
2022-12-15T14:49:25.699Z,94187.72
2022-12-15T14:55:00.855Z,94201.09
2022-12-15T14:57:46.700Z,94206.28
2022-12-15T15:00:29.325Z,94220.66
2022-12-15T15:05:57.941Z,94210.13
2022-12-15T15:08:40.179Z,94212.22
2022-12-15T15:11:25.279Z,94221.88
2022-12-15T15:13:59.586Z,94222.16
2022-12-15T15:16:31.961Z,94218.94
2022-12-15T15:19:04.551Z,94222.94
2022-12-15T15:21:38.836Z,94219.88
2022-12-15T15:24:25.724Z,94217.19
2022-12-15T15:26:55.776Z,94224.06
2022-12-15T15:32:54.024Z,94232.41
2022-12-15T15:35:37.516Z,94231.63
2022-12-15T15:38:16.688Z,94232.72
2022-12-15T15:40:57.313Z,94238.47
2022-12-15T15:43:29.459Z,94226.22
2022-12-15T15:46:08.117Z,94239.97
2022-12-15T15:48:40.949Z,94229.66
2022-12-15T15:51:13.531Z,94234.75
2022-12-15T15:53:42.821Z,94241.66
2022-12-15T15:56:28.273Z,94230.66
2022-12-15T15:58:57.542Z,94248.28
2022-12-15T16:02:12.908Z,94242.78
2022-12-15T16:10:24.587Z,94239.09
2022-12-15T16:13:10.985Z,94254.81
2022-12-15T16:21:35.651Z,94266.22
2022-12-15T16:24:10.233Z,94241.91
2022-12-15T16:26:39.432Z,94260.75
2022-12-15T16:29:18.886Z,94258.22
2022-12-15T16:31:47.346Z,94259.44
2022-12-15T16:34:17.769Z,94266.56
2022-12-15T16:37:26.496Z,94281.22
2022-12-15T16:39:56.839Z,94267.09
2022-12-15T16:42:25.150Z,94278.44
2022-12-15T16:44:55.534Z,94266.50
2022-12-15T16:47:34.122Z,94286.84
2022-12-15T16:50:03.650Z,94299.25
2022-12-15T16:52:34.870Z,94294.03
2022-12-15T16:55:17.050Z,94267.75
2022-12-15T16:57:45.442Z,94298.03
2022-12-15T17:00:20.603Z,94286.53
2022-12-15T17:02:53.257Z,94286.16
2022-12-15T17:05:23.164Z,94308.22
2022-12-15T17:07:56.386Z,94299.94
2022-12-15T17:10:30.623Z,94305.53
2022-12-15T17:13:06.357Z,94310.53
2022-12-15T17:15:37.118Z,94303.53
2022-12-15T17:18:08.028Z,94308.78
2022-12-15T17:20:36.632Z,94299.97
2022-12-15T17:23:13.426Z,94296.69
2022-12-15T17:28:33.036Z,94309.16
2022-12-15T17:31:10.668Z,94329.31
2022-12-15T17:33:41.573Z,94332.53
2022-12-15T17:36:32.256Z,94322.06
2022-12-15T17:39:37.072Z,94342.44
2022-12-15T17:45:15.968Z,94339.44
2022-12-15T17:47:44.385Z,94325.44
2022-12-15T17:56:40.870Z,94336.53
2022-12-15T17:59:14.741Z,94332.28
2022-12-15T18:01:57.546Z,94359.69
2022-12-15T18:04:40.397Z,94338.84
2022-12-15T18:07:18.947Z,94327.06
2022-12-15T18:13:11.264Z,94304.00
2022-12-15T18:15:41.794Z,94330.91
2022-12-15T18:18:11.513Z,94316.25
2022-12-15T18:20:39.795Z,94325.59
2022-12-15T18:23:15.102Z,94317.34
2022-12-15T18:25:45.585Z,94322.06
2022-12-15T18:28:31.145Z,94316.53
2022-12-15T18:31:05.851Z,94316.75
2022-12-15T18:33:35.030Z,94315.66
2022-12-15T18:36:03.476Z,94330.16
2022-12-15T18:38:38.146Z,94328.75
2022-12-15T18:41:07.083Z,94326.56
2022-12-15T18:43:36.805Z,94318.50
2022-12-15T18:46:05.729Z,94328.09
2022-12-15T18:48:35.701Z,94328.81
2022-12-15T18:51:14.015Z,94352.72
2022-12-15T18:53:42.341Z,94328.81
2022-12-15T18:56:14.534Z,94328.31
2022-12-15T18:58:45.530Z,94330.25
2022-12-15T19:01:15.811Z,94334.56
2022-12-15T19:03:43.851Z,94335.78
2022-12-15T19:06:25.642Z,94332.09
2022-12-15T19:08:54.401Z,94324.16
2022-12-15T19:11:31.156Z,94324.06
2022-12-15T19:14:01.466Z,94313.28
2022-12-15T19:16:50.819Z,94304.50
2022-12-15T19:19:36.496Z,94320.91
2022-12-15T19:22:30.682Z,94329.41
2022-12-15T19:24:59.643Z,94330.13
2022-12-15T19:27:28.857Z,94324.91
2022-12-15T19:29:58.490Z,94321.19
2022-12-15T19:32:26.894Z,94312.00
2022-12-15T19:34:54.952Z,94341.06
2022-12-15T19:37:27.776Z,94340.41
2022-12-15T19:39:56.973Z,94348.22
2022-12-15T19:42:29.996Z,94348.78
2022-12-15T19:44:59.900Z,94350.50
2022-12-15T19:47:28.021Z,94355.75
2022-12-15T19:49:56.288Z,94342.69
2022-12-15T19:52:24.852Z,94350.28
2022-12-15T19:54:53.147Z,94356.19
2022-12-15T19:57:21.873Z,94346.97
2022-12-15T19:59:53.431Z,94346.50
2022-12-15T20:02:25.075Z,94370.31
2022-12-15T20:04:53.177Z,94346.75
2022-12-15T20:07:28.074Z,94360.38
2022-12-15T20:09:58.240Z,94373.13
2022-12-15T20:12:27.407Z,94362.06
2022-12-15T20:14:55.438Z,94372.94
2022-12-15T20:17:26.721Z,94373.59
2022-12-15T20:20:03.004Z,94371.28
2022-12-15T20:22:31.277Z,94375.47
2022-12-15T20:24:59.954Z,94370.41
2022-12-15T20:27:28.073Z,94356.22
2022-12-15T20:29:56.185Z,94344.34
2022-12-15T20:32:25.971Z,94337.75
2022-12-15T20:34:55.607Z,94365.41
2022-12-15T20:37:28.219Z,94356.22
2022-12-15T20:39:57.829Z,94346.66
2022-12-15T20:42:26.689Z,94337.16
2022-12-15T20:44:55.079Z,94335.81
2022-12-15T20:47:30.936Z,94319.56
2022-12-15T20:49:59.025Z,94315.91
2022-12-15T20:52:29.495Z,94328.78
2022-12-15T20:54:57.911Z,94307.25
2022-12-15T20:57:25.934Z,94339.44
2022-12-15T20:59:54.353Z,94342.28
2022-12-15T21:02:25.083Z,94343.38
2022-12-15T21:04:56.138Z,94340.16
2022-12-15T21:07:24.292Z,94325.00
2022-12-15T21:09:52.447Z,94320.56
2022-12-15T21:12:22.315Z,94323.28
2022-12-15T21:14:51.158Z,94330.03
2022-12-15T21:17:21.353Z,94353.97
2022-12-15T21:19:50.286Z,94349.63
2022-12-15T21:22:22.165Z,94335.69
2022-12-15T21:24:52.598Z,94309.19
2022-12-15T21:27:21.628Z,94353.81
2022-12-15T21:29:52.879Z,94358.19
2022-12-15T21:32:21.507Z,94364.41
2022-12-15T21:34:49.871Z,94353.88
2022-12-15T21:37:26.796Z,94356.56
2022-12-15T21:39:55.683Z,94358.44
2022-12-15T21:42:24.188Z,94368.25
2022-12-15T21:44:52.413Z,94346.19
2022-12-15T21:47:48.279Z,94347.16
2022-12-15T21:50:16.112Z,94348.22
2022-12-15T21:52:46.357Z,94344.31
2022-12-15T21:55:16.706Z,94361.63
2022-12-15T21:57:45.187Z,94355.94
2022-12-15T22:00:15.750Z,94343.78
2022-12-15T22:02:44.285Z,94338.38
2022-12-15T22:05:17.662Z,94330.44
2022-12-15T22:07:47.817Z,94317.41
2022-12-15T22:10:16.466Z,94336.22
2022-12-15T22:12:57.494Z,94334.56
2022-12-15T22:15:27.736Z,94333.47
2022-12-15T22:17:56.543Z,94328.31
2022-12-15T22:20:25.987Z,94339.53
2022-12-15T22:22:55.527Z,94328.16
2022-12-15T22:25:25.411Z,94325.28
2022-12-15T22:27:54.929Z,94337.59
2022-12-15T22:30:25.248Z,94316.31
2022-12-15T22:32:53.800Z,94317.66
2022-12-15T22:35:24.248Z,94298.41
2022-12-15T22:37:54.116Z,94300.31
2022-12-15T22:40:25.732Z,94309.09
2022-12-15T22:42:56.447Z,94293.72
2022-12-15T22:45:25.176Z,94285.72
2022-12-15T22:47:54.942Z,94301.41
2022-12-15T22:50:26.030Z,94314.78
2022-12-15T22:52:55.071Z,94288.78
2022-12-15T22:55:25.807Z,94301.94
2022-12-15T22:57:58.806Z,94290.66
2022-12-15T23:00:27.368Z,94303.16
2022-12-15T23:05:23.957Z,94287.16
2022-12-15T23:07:52.270Z,94307.28
2022-12-15T23:10:41.569Z,94296.88
2022-12-15T23:13:09.479Z,94297.91
2022-12-15T23:15:54.904Z,94299.66
2022-12-15T23:18:25.660Z,94318.50
2022-12-15T23:20:54.066Z,94301.25
2022-12-15T23:23:22.609Z,94317.25
2022-12-15T23:25:54.937Z,94303.13
2022-12-15T23:28:23.319Z,94315.50
2022-12-15T23:30:51.680Z,94321.06
2022-12-15T23:33:19.950Z,94321.47
2022-12-15T23:35:48.410Z,94309.44
2022-12-15T23:38:16.725Z,94303.16
2022-12-15T23:40:52.553Z,94325.66
2022-12-15T23:43:23.338Z,94314.97
2022-12-15T23:45:58.172Z,94318.66
2022-12-15T23:48:29.622Z,94320.03
2022-12-15T23:50:57.551Z,94319.66
2022-12-15T23:53:25.452Z,94302.41
2022-12-15T23:55:53.414Z,94315.06
2022-12-15T23:58:22.954Z,94289.59
